Time;durP1;ratioP1;P1;durP2;ratioP2;P2;SDS_P1;SDS_P2;PMS_P1;PMS_P2;Temp;Humidity;BMP_temperature;BMP_pressure;BME280_temperature;BME280_humidity;BME280_pressure;Samples;Min_cycle;Max_cycle;Signal;HPM_P1;HPM_P2
2023/05/01 00:00:19;;;;;;;0.20;0.20;;;;;;;;;;5094900;28;20028;-75
2023/05/01 00:02:48;;;;;;;0.20;0.20;;;;;;;;;;5095219;28;20480;-76
2023/05/01 00:05:14;;;;;;;0.20;0.20;;;;;;;;;;5095023;28;20084;-75
2023/05/01 00:07:39;;;;;;;0.10;0.10;;;;;;;;;;5095203;28;20032;-76
2023/05/01 00:10:05;;;;;;;0.10;0.10;;;;;;;;;;5095115;28;20452;-76
2023/05/01 00:12:31;;;;;;;0.20;0.20;;;;;;;;;;5095010;28;20024;-75
2023/05/01 00:14:56;;;;;;;0.20;0.20;;;;;;;;;;5095129;28;20032;-75
2023/05/01 00:17:22;;;;;;;0.17;0.17;;;;;;;;;;5095233;28;20051;-75
2023/05/01 00:19:54;;;;;;;0.20;0.20;;;;;;;;;;5093807;28;20114;-75
2023/05/01 00:22:19;;;;;;;0.52;0.52;;;;;;;;;;5074540;28;20047;-75
2023/05/01 00:24:46;;;;;;;0.40;0.40;;;;;;;;;;5074579;28;20028;-75
2023/05/01 00:27:12;;;;;;;0.17;0.17;;;;;;;;;;5074535;28;20040;-75
2023/05/01 00:29:38;;;;;;;0.20;0.20;;;;;;;;;;5056382;28;20111;-75
2023/05/01 00:32:04;;;;;;;0.20;0.20;;;;;;;;;;5074604;28;20388;-77
2023/05/01 00:34:29;;;;;;;0.20;0.20;;;;;;;;;;5089653;28;20463;-77
2023/05/01 00:36:55;;;;;;;0.20;0.20;;;;;;;;;;5076488;28;20036;-77
2023/05/01 00:39:21;;;;;;;0.20;0.20;;;;;;;;;;5094632;28;20024;-77
2023/05/01 00:41:46;;;;;;;0.85;0.85;;;;;;;;;;5094812;28;20085;-77
2023/05/01 00:44:12;;;;;;;0.30;0.30;;;;;;;;;;5076302;28;20063;-77
2023/05/01 00:46:37;;;;;;;1.05;0.95;;;;;;;;;;5094614;28;20438;-75
2023/05/01 00:49:03;;;;;;;0.20;0.20;;;;;;;;;;5094535;28;20421;-75
2023/05/01 00:51:30;;;;;;;0.10;0.10;;;;;;;;;;5076217;28;20115;-75
2023/05/01 00:53:57;;;;;;;0.20;0.20;;;;;;;;;;5076169;28;20491;-76
2023/05/01 00:56:22;;;;;;;0.20;0.20;;;;;;;;;;5094373;28;20035;-75
2023/05/01 00:58:49;;;;;;;0.20;0.20;;;;;;;;;;5094117;28;20028;-75
2023/05/01 01:01:15;;;;;;;0.47;0.47;;;;;;;;;;5093064;28;20082;-73
2023/05/01 01:03:40;;;;;;;0.75;0.50;;;;;;;;;;5077208;28;20036;-75
2023/05/01 01:06:15;;;;;;;0.20;0.20;;;;;;;;;;5078664;28;20038;-75
2023/05/01 01:08:42;;;;;;;0.20;0.20;;;;;;;;;;5097455;28;20095;-76
2023/05/01 01:11:10;;;;;;;0.15;0.15;;;;;;;;;;5076461;28;20020;-76
2023/05/01 01:13:39;;;;;;;0.10;0.10;;;;;;;;;;5093998;28;20127;-76
2023/05/01 01:16:13;;;;;;;2.15;0.75;;;;;;;;;;5092888;28;20028;-77
2023/05/01 01:18:42;;;;;;;0.20;0.20;;;;;;;;;;5094082;28;20093;-75
2023/05/01 01:21:07;;;;;;;0.17;0.17;;;;;;;;;;5093963;28;20028;-76
2023/05/01 01:23:45;;;;;;;0.10;0.10;;;;;;;;;;5075622;28;20047;-76
2023/05/01 01:26:23;;;;;;;0.10;0.10;;;;;;;;;;5075584;28;20024;-77
2023/05/01 01:29:07;;;;;;;0.50;0.50;;;;;;;;;;5076114;28;20032;-77
2023/05/01 01:31:38;;;;;;;0.20;0.20;;;;;;;;;;5094144;28;20043;-78
2023/05/01 01:34:34;;;;;;;0.20;0.20;;;;;;;;;;5075737;28;20531;-78
2023/05/01 01:37:37;;;;;;;0.43;0.43;;;;;;;;;;5072867;28;20052;-76
2023/05/01 01:40:08;;;;;;;0.20;0.20;;;;;;;;;;4990392;28;20486;-76
2023/05/01 01:42:36;;;;;;;0.20;0.20;;;;;;;;;;4992250;28;20042;-76
2023/05/01 01:45:04;;;;;;;0.20;0.20;;;;;;;;;;5026063;28;20070;-77
2023/05/01 01:47:31;;;;;;;4.68;4.43;;;;;;;;;;5075476;28;20043;-77
2023/05/01 01:49:58;;;;;;;0.10;0.10;;;;;;;;;;5091954;28;20032;-76
2023/05/01 01:52:25;;;;;;;0.10;0.10;;;;;;;;;;5093803;28;20036;-77
2023/05/01 01:54:53;;;;;;;0.20;0.20;;;;;;;;;;5075394;28;20055;-76
2023/05/01 01:57:20;;;;;;;0.20;0.20;;;;;;;;;;5075158;28;20090;-76
2023/05/01 01:59:47;;;;;;;0.20;0.20;;;;;;;;;;5075225;28;20032;-76
2023/05/01 02:02:14;;;;;;;0.17;0.17;;;;;;;;;;5075162;28;20036;-76
2023/05/01 02:04:41;;;;;;;0.20;0.20;;;;;;;;;;5075436;28;20047;-76
2023/05/01 02:07:07;;;;;;;0.10;0.10;;;;;;;;;;5075037;28;20036;-76
2023/05/01 02:09:33;;;;;;;0.20;0.20;;;;;;;;;;5074948;28;20457;-76
2023/05/01 02:12:01;;;;;;;0.10;0.10;;;;;;;;;;5074951;28;20043;-75
2023/05/01 02:14:27;;;;;;;0.10;0.10;;;;;;;;;;5075166;28;20411;-75
2023/05/01 02:16:56;;;;;;;0.20;0.20;;;;;;;;;;5091926;28;20026;-76
2023/05/01 02:19:22;;;;;;;0.20;0.20;;;;;;;;;;5093313;28;20024;-76
2023/05/01 02:21:48;;;;;;;0.10;0.10;;;;;;;;;;5091715;28;20109;-75
2023/05/01 02:24:15;;;;;;;0.63;0.63;;;;;;;;;;5092806;28;20036;-75
2023/05/01 02:26:42;;;;;;;0.40;0.40;;;;;;;;;;5092773;28;20055;-75
2023/05/01 02:29:08;;;;;;;0.20;0.20;;;;;;;;;;5074917;28;20467;-75
2023/05/01 02:31:33;;;;;;;0.40;0.40;;;;;;;;;;5091709;28;20028;-75
2023/05/01 02:33:58;;;;;;;0.10;0.10;;;;;;;;;;5092963;28;20036;-75
2023/05/01 02:36:24;;;;;;;0.20;0.20;;;;;;;;;;5092986;28;20588;-76
2023/05/01 02:38:50;;;;;;;0.32;0.32;;;;;;;;;;5074714;28;20036;-79
2023/05/01 02:41:16;;;;;;;0.20;0.20;;;;;;;;;;5074571;28;20378;-78
2023/05/01 02:43:43;;;;;;;0.10;0.10;;;;;;;;;;5092807;28;20123;-76
2023/05/01 02:46:09;;;;;;;0.20;0.20;;;;;;;;;;5073311;28;20021;-76
2023/05/01 02:48:36;;;;;;;0.20;0.20;;;;;;;;;;5054325;28;20033;-76
2023/05/01 02:51:02;;;;;;;0.20;0.20;;;;;;;;;;5054398;28;20059;-76
2023/05/01 02:53:29;;;;;;;0.35;0.35;;;;;;;;;;5071180;28;20057;-76
2023/05/01 02:56:02;;;;;;;0.38;0.38;;;;;;;;;;5054249;28;20037;-76
2023/05/01 02:58:29;;;;;;;0.20;0.20;;;;;;;;;;5075194;28;20031;-73
2023/05/01 03:00:54;;;;;;;0.30;0.30;;;;;;;;;;5075896;28;20480;-73
2023/05/01 03:03:20;;;;;;;0.20;0.20;;;;;;;;;;5064503;28;20043;-75
2023/05/01 03:05:46;;;;;;;0.20;0.20;;;;;;;;;;5092368;28;20476;-74
2023/05/01 03:08:12;;;;;;;0.20;0.20;;;;;;;;;;5092000;28;20063;-74
2023/05/01 03:10:43;;;;;;;0.13;0.13;;;;;;;;;;5092265;28;20133;-74
2023/05/01 03:13:10;;;;;;;0.20;0.20;;;;;;;;;;5093270;28;20051;-76
2023/05/01 03:15:35;;;;;;;0.10;0.10;;;;;;;;;;5077973;28;20476;-76
2023/05/01 03:18:01;;;;;;;0.10;0.10;;;;;;;;;;5094888;28;20043;-76
2023/05/01 03:20:28;;;;;;;0.20;0.20;;;;;;;;;;5092235;28;20035;-76
2023/05/01 03:22:54;;;;;;;0.30;0.30;;;;;;;;;;5074332;28;20089;-75
2023/05/01 03:25:19;;;;;;;0.10;0.10;;;;;;;;;;5056983;28;20040;-76
2023/05/01 03:27:46;;;;;;;0.20;0.20;;;;;;;;;;5073506;28;20067;-76
2023/05/01 03:30:12;;;;;;;0.20;0.20;;;;;;;;;;5073691;28;20075;-76
2023/05/01 03:32:39;;;;;;;0.10;0.10;;;;;;;;;;5072992;28;20053;-76
2023/05/01 03:35:10;;;;;;;0.20;0.20;;;;;;;;;;5073460;28;20479;-76
2023/05/01 03:37:36;;;;;;;0.10;0.10;;;;;;;;;;5073865;28;20046;-75
2023/05/01 03:40:01;;;;;;;0.20;0.20;;;;;;;;;;5073052;28;20028;-75
2023/05/01 03:42:36;;;;;;;0.20;0.20;;;;;;;;;;5091707;28;20040;-76
2023/05/01 03:45:08;;;;;;;0.20;0.20;;;;;;;;;;5073485;28;20039;-75
2023/05/01 03:47:34;;;;;;;0.20;0.20;;;;;;;;;;5072462;28;20491;-75
2023/05/01 03:49:59;;;;;;;0.20;0.20;;;;;;;;;;5072460;28;20048;-75
2023/05/01 03:52:25;;;;;;;0.17;0.17;;;;;;;;;;5073043;28;20791;-75
2023/05/01 03:54:51;;;;;;;0.10;0.10;;;;;;;;;;5073197;28;20539;-77
2023/05/01 03:57:22;;;;;;;0.77;0.77;;;;;;;;;;5073281;28;20082;-77
2023/05/01 03:59:49;;;;;;;3.92;2.25;;;;;;;;;;5072747;28;20078;-76
2023/05/01 04:02:15;;;;;;;0.10;0.10;;;;;;;;;;5072189;28;20043;-76
2023/05/01 04:04:43;;;;;;;0.28;0.28;;;;;;;;;;5072888;28;20047;-77
2023/05/01 04:07:09;;;;;;;0.20;0.20;;;;;;;;;;5072859;28;20039;-76
2023/05/01 04:09:34;;;;;;;0.20;0.20;;;;;;;;;;5072381;28;20034;-80
2023/05/01 04:12:01;;;;;;;0.20;0.20;;;;;;;;;;5072754;28;20036;-76
2023/05/01 04:14:27;;;;;;;0.13;0.13;;;;;;;;;;5090792;28;20061;-75
2023/05/01 04:16:52;;;;;;;0.20;0.20;;;;;;;;;;5055815;28;20043;-76
2023/05/01 04:19:18;;;;;;;0.30;0.30;;;;;;;;;;5072678;28;20490;-77
2023/05/01 04:21:45;;;;;;;0.20;0.20;;;;;;;;;;5071915;28;20248;-76
2023/05/01 04:24:10;;;;;;;0.10;0.10;;;;;;;;;;5072186;28;20040;-76
2023/05/01 04:26:37;;;;;;;0.20;0.20;;;;;;;;;;5072503;28;20074;-76
2023/05/01 04:29:03;;;;;;;0.20;0.20;;;;;;;;;;5072560;28;20505;-78
2023/05/01 04:31:29;;;;;;;0.20;0.20;;;;;;;;;;5072510;28;20032;-78
2023/05/01 04:33:54;;;;;;;0.10;0.10;;;;;;;;;;5090147;28;20023;-78
2023/05/01 04:36:20;;;;;;;0.20;0.20;;;;;;;;;;5088931;28;20449;-78
2023/05/01 04:38:46;;;;;;;0.20;0.20;;;;;;;;;;5090739;28;20025;-77
2023/05/01 04:41:12;;;;;;;0.20;0.20;;;;;;;;;;5072037;28;20092;-77
2023/05/01 04:43:37;;;;;;;0.20;0.20;;;;;;;;;;5072326;28;20040;-76
2023/05/01 04:46:04;;;;;;;0.20;0.20;;;;;;;;;;5070087;28;20479;-77
2023/05/01 04:48:29;;;;;;;0.20;0.20;;;;;;;;;;5072065;28;20032;-77
2023/05/01 04:50:55;;;;;;;0.10;0.10;;;;;;;;;;5071664;28;20081;-79
2023/05/01 04:53:22;;;;;;;0.13;0.13;;;;;;;;;;5071710;28;20028;-76
2023/05/01 04:55:47;;;;;;;0.20;0.20;;;;;;;;;;5090404;28;20043;-77
2023/05/01 04:58:14;;;;;;;0.20;0.20;;;;;;;;;;5071941;28;20039;-77
2023/05/01 05:00:42;;;;;;;0.20;0.20;;;;;;;;;;5086656;28;20043;-76
2023/05/01 05:03:11;;;;;;;0.20;0.20;;;;;;;;;;5068926;28;20032;-76
2023/05/01 05:05:37;;;;;;;0.20;0.20;;;;;;;;;;5068546;28;20468;-78
2023/05/01 05:08:05;;;;;;;0.20;0.20;;;;;;;;;;5056264;28;20485;-79
2023/05/01 05:10:35;;;;;;;0.20;0.20;;;;;;;;;;5072028;28;20039;-79
2023/05/01 05:13:19;;;;;;;0.20;0.20;;;;;;;;;;5072117;28;20085;-76
2023/05/01 05:15:48;;;;;;;0.63;0.63;;;;;;;;;;5089845;28;20032;-77
2023/05/01 05:18:14;;;;;;;0.20;0.20;;;;;;;;;;5065786;28;20126;-76
2023/05/01 05:20:39;;;;;;;0.20;0.20;;;;;;;;;;5084222;28;20063;-78
2023/05/01 05:23:05;;;;;;;0.20;0.20;;;;;;;;;;5089645;28;20036;-76
2023/05/01 05:25:31;;;;;;;0.13;0.13;;;;;;;;;;5075984;28;20097;-76
2023/05/01 05:27:56;;;;;;;0.20;0.20;;;;;;;;;;5071177;28;20032;-75
2023/05/01 05:30:21;;;;;;;0.20;0.20;;;;;;;;;;5072361;28;20095;-74
2023/05/01 05:32:47;;;;;;;0.10;0.10;;;;;;;;;;5071761;28;20036;-73
2023/05/01 05:35:13;;;;;;;0.20;0.20;;;;;;;;;;5054732;28;20047;-73
2023/05/01 05:37:38;;;;;;;0.20;0.20;;;;;;;;;;5090078;28;20036;-74
2023/05/01 05:40:04;;;;;;;0.20;0.20;;;;;;;;;;5069918;28;20040;-76
2023/05/01 05:42:37;;;;;;;0.20;0.20;;;;;;;;;;5067185;28;20032;-75
2023/05/01 05:45:05;;;;;;;0.20;0.20;;;;;;;;;;5067309;28;20098;-77
2023/05/01 05:47:31;;;;;;;0.20;0.20;;;;;;;;;;5070033;28;20503;-75
2023/05/01 05:49:57;;;;;;;0.20;0.20;;;;;;;;;;5070632;28;20024;-77
2023/05/01 05:52:23;;;;;;;0.20;0.20;;;;;;;;;;5070389;28;20040;-76
2023/05/01 05:54:48;;;;;;;0.20;0.20;;;;;;;;;;5071420;28;20035;-77
2023/05/01 05:57:14;;;;;;;0.20;0.20;;;;;;;;;;5089828;28;20081;-77
2023/05/01 05:59:45;;;;;;;0.20;0.20;;;;;;;;;;5071392;28;20383;-75
2023/05/01 06:02:13;;;;;;;0.20;0.20;;;;;;;;;;5070233;28;20040;-79
2023/05/01 06:04:38;;;;;;;0.20;0.20;;;;;;;;;;5055369;28;20029;-77
2023/05/01 06:07:05;;;;;;;0.20;0.20;;;;;;;;;;5069292;28;20037;-75
2023/05/01 06:09:30;;;;;;;0.20;0.20;;;;;;;;;;5051064;28;20109;-76
2023/05/01 06:11:57;;;;;;;0.20;0.20;;;;;;;;;;5050767;28;20064;-76
2023/05/01 06:14:22;;;;;;;0.20;0.20;;;;;;;;;;5069001;28;20043;-76
2023/05/01 06:16:48;;;;;;;0.20;0.20;;;;;;;;;;5068982;28;20040;-78
2023/05/01 06:19:14;;;;;;;0.20;0.20;;;;;;;;;;5069277;28;20111;-77
2023/05/01 06:21:40;;;;;;;0.20;0.20;;;;;;;;;;5051024;28;20033;-78
2023/05/01 06:24:07;;;;;;;0.20;0.20;;;;;;;;;;5050807;28;20031;-77
2023/05/01 06:26:45;;;;;;;0.20;0.20;;;;;;;;;;5068743;28;20467;-76
2023/05/01 06:29:10;;;;;;;0.20;0.20;;;;;;;;;;5050736;28;20090;-78
2023/05/01 06:31:36;;;;;;;0.20;0.20;;;;;;;;;;5050459;28;20071;-77
2023/05/01 06:34:01;;;;;;;0.20;0.20;;;;;;;;;;5050370;28;20483;-76
2023/05/01 06:36:31;;;;;;;0.20;0.20;;;;;;;;;;5050769;28;20033;-77
2023/05/01 06:38:57;;;;;;;0.20;0.20;;;;;;;;;;5050612;28;20493;-76
2023/05/01 06:41:22;;;;;;;0.10;0.10;;;;;;;;;;5068708;28;20040;-77
2023/05/01 06:43:48;;;;;;;0.20;0.20;;;;;;;;;;5068031;28;20430;-76
2023/05/01 06:46:15;;;;;;;1.95;1.85;;;;;;;;;;5050523;28;20036;-78
2023/05/01 06:48:40;;;;;;;0.20;0.20;;;;;;;;;;5050691;28;20575;-77
2023/05/01 06:51:05;;;;;;;0.20;0.20;;;;;;;;;;5068673;28;20060;-77
2023/05/01 06:53:31;;;;;;;0.20;0.20;;;;;;;;;;5050414;28;20036;-76
2023/05/01 06:55:56;;;;;;;0.22;0.22;;;;;;;;;;5050384;28;20028;-74
2023/05/01 06:58:22;;;;;;;0.20;0.20;;;;;;;;;;5082563;28;20083;-79
2023/05/01 07:00:47;;;;;;;0.20;0.20;;;;;;;;;;5067551;28;20027;-79
2023/05/01 07:03:13;;;;;;;0.20;0.20;;;;;;;;;;5070337;28;20483;-79
2023/05/01 07:05:39;;;;;;;0.20;0.20;;;;;;;;;;5087712;28;20379;-79
2023/05/01 07:08:05;;;;;;;0.20;0.20;;;;;;;;;;5086592;28;20032;-79
2023/05/01 07:10:30;;;;;;;0.30;0.30;;;;;;;;;;5067439;28;20032;-79
2023/05/01 07:12:56;;;;;;;0.22;0.22;;;;;;;;;;5083325;28;20032;-79
2023/05/01 07:15:22;;;;;;;0.20;0.20;;;;;;;;;;5078690;28;20032;-79
2023/05/01 07:17:49;;;;;;;0.20;0.20;;;;;;;;;;5067431;28;20024;-79
2023/05/01 07:20:15;;;;;;;0.20;0.20;;;;;;;;;;5067640;28;20047;-79
2023/05/01 07:22:41;;;;;;;0.20;0.20;;;;;;;;;;5080508;28;20032;-80
2023/05/01 07:25:07;;;;;;;0.20;0.20;;;;;;;;;;5088072;28;20451;-79
2023/05/01 07:27:32;;;;;;;0.20;0.20;;;;;;;;;;5069129;28;20503;-76
2023/05/01 07:29:59;;;;;;;0.25;0.25;;;;;;;;;;5086152;28;20102;-71
2023/05/01 07:32:25;;;;;;;0.20;0.20;;;;;;;;;;5091169;28;20107;-72
2023/05/01 07:34:51;;;;;;;0.20;0.20;;;;;;;;;;5088265;28;20463;-71
2023/05/01 07:37:17;;;;;;;0.85;0.85;;;;;;;;;;5069748;28;20391;-71
2023/05/01 07:39:43;;;;;;;0.20;0.20;;;;;;;;;;5058813;28;20476;-74
2023/05/01 07:42:08;;;;;;;0.20;0.20;;;;;;;;;;5079989;28;20024;-71
2023/05/01 07:44:34;;;;;;;0.20;0.20;;;;;;;;;;5082586;28;20040;-71
2023/05/01 07:47:02;;;;;;;0.20;0.20;;;;;;;;;;5079106;28;20468;-72
2023/05/01 07:49:28;;;;;;;0.20;0.20;;;;;;;;;;5085285;28;20426;-72
2023/05/01 07:51:54;;;;;;;0.20;0.20;;;;;;;;;;5088804;28;20043;-71
2023/05/01 07:54:21;;;;;;;0.20;0.20;;;;;;;;;;5089872;28;20479;-70
2023/05/01 07:56:52;;;;;;;0.20;0.20;;;;;;;;;;5089246;28;20067;-74
2023/05/01 07:59:18;;;;;;;0.20;0.20;;;;;;;;;;5089414;28;20113;-72
2023/05/01 08:01:43;;;;;;;0.28;0.28;;;;;;;;;;5089521;28;20112;-71
2023/05/01 08:04:09;;;;;;;0.20;0.20;;;;;;;;;;5089746;28;20099;-71
2023/05/01 08:06:34;;;;;;;0.20;0.20;;;;;;;;;;5089839;28;20034;-73
2023/05/01 08:09:00;;;;;;;0.20;0.20;;;;;;;;;;5090500;28;20541;-70
2023/05/01 08:11:25;;;;;;;0.20;0.20;;;;;;;;;;5090223;28;20028;-72
2023/05/01 08:13:51;;;;;;;0.20;0.20;;;;;;;;;;5089015;28;20030;-70
2023/05/01 08:16:18;;;;;;;0.20;0.20;;;;;;;;;;5089664;28;20038;-72
2023/05/01 08:18:45;;;;;;;0.20;0.20;;;;;;;;;;5071077;28;20028;-72
2023/05/01 08:21:10;;;;;;;0.20;0.20;;;;;;;;;;5089121;28;20629;-71
2023/05/01 08:23:36;;;;;;;0.20;0.20;;;;;;;;;;5089348;28;20111;-73
2023/05/01 08:26:01;;;;;;;0.20;0.20;;;;;;;;;;5089275;28;20105;-75
2023/05/01 08:28:27;;;;;;;0.40;0.40;;;;;;;;;;5090225;28;20031;-71
2023/05/01 08:30:52;;;;;;;0.20;0.20;;;;;;;;;;5090485;28;20033;-71
2023/05/01 08:33:17;;;;;;;0.20;0.20;;;;;;;;;;5091286;28;20035;-72
2023/05/01 08:35:43;;;;;;;0.20;0.20;;;;;;;;;;5072458;28;20043;-70
2023/05/01 08:38:10;;;;;;;0.20;0.20;;;;;;;;;;5090591;28;20032;-71
2023/05/01 08:40:36;;;;;;;0.20;0.20;;;;;;;;;;5090925;28;20089;-70
2023/05/01 08:43:02;;;;;;;0.20;0.20;;;;;;;;;;5090283;28;20027;-71
2023/05/01 08:45:31;;;;;;;0.20;0.20;;;;;;;;;;5090408;28;20032;-72
2023/05/01 08:47:58;;;;;;;0.20;0.20;;;;;;;;;;5090159;28;20024;-70
2023/05/01 08:50:24;;;;;;;0.20;0.20;;;;;;;;;;5072150;28;20032;-71
2023/05/01 08:52:51;;;;;;;0.20;0.20;;;;;;;;;;5090897;28;20028;-78
2023/05/01 08:55:18;;;;;;;0.20;0.20;;;;;;;;;;5090591;28;20509;-70
2023/05/01 08:57:45;;;;;;;0.20;0.20;;;;;;;;;;5090201;28;20028;-72
2023/05/01 09:00:13;;;;;;;0.20;0.20;;;;;;;;;;5055222;28;20460;-73
2023/05/01 09:02:40;;;;;;;0.28;0.28;;;;;;;;;;5090581;28;20035;-70
2023/05/01 09:05:06;;;;;;;0.20;0.20;;;;;;;;;;5090011;28;20028;-70
2023/05/01 09:07:32;;;;;;;0.20;0.20;;;;;;;;;;5089961;28;20035;-78
2023/05/01 09:09:57;;;;;;;0.20;0.20;;;;;;;;;;5090040;28;20020;-70
2023/05/01 09:12:22;;;;;;;0.20;0.20;;;;;;;;;;5089487;28;20036;-70
2023/05/01 09:14:49;;;;;;;0.20;0.20;;;;;;;;;;5089219;28;20038;-72
2023/05/01 09:17:14;;;;;;;0.20;0.20;;;;;;;;;;5088983;28;20053;-72
2023/05/01 09:19:40;;;;;;;0.20;0.20;;;;;;;;;;5088938;28;20094;-73
2023/05/01 09:22:06;;;;;;;0.30;0.30;;;;;;;;;;5088798;28;20867;-72
2023/05/01 09:24:32;;;;;;;0.20;0.20;;;;;;;;;;5088782;28;20071;-70
2023/05/01 09:27:00;;;;;;;0.20;0.20;;;;;;;;;;5088741;28;20379;-71
2023/05/01 09:29:37;;;;;;;0.20;0.20;;;;;;;;;;5071949;28;20040;-70
2023/05/01 09:32:22;;;;;;;0.20;0.20;;;;;;;;;;5089663;28;20080;-71
2023/05/01 09:34:48;;;;;;;0.20;0.20;;;;;;;;;;5090418;28;20042;-72
2023/05/01 09:37:28;;;;;;;0.20;0.20;;;;;;;;;;5092067;28;20059;-71
2023/05/01 09:40:04;;;;;;;0.20;0.20;;;;;;;;;;5091609;28;20028;-71
2023/05/01 09:42:31;;;;;;;0.30;0.30;;;;;;;;;;5090417;28;20127;-70
2023/05/01 09:44:56;;;;;;;0.13;0.13;;;;;;;;;;5089653;28;20027;-70
2023/05/01 09:47:22;;;;;;;0.20;0.20;;;;;;;;;;5089174;28;20053;-71
2023/05/01 09:49:48;;;;;;;0.20;0.20;;;;;;;;;;5089570;28;20012;-71
2023/05/01 09:52:14;;;;;;;0.20;0.20;;;;;;;;;;5089526;28;20032;-71
2023/05/01 09:54:40;;;;;;;0.20;0.20;;;;;;;;;;5089065;28;20538;-73
2023/05/01 09:57:05;;;;;;;0.45;0.40;;;;;;;;;;5089319;28;20028;-70
2023/05/01 09:59:33;;;;;;;0.20;0.20;;;;;;;;;;5089691;28;20088;-74
2023/05/01 10:01:58;;;;;;;0.20;0.20;;;;;;;;;;5089776;28;20031;-71
2023/05/01 10:04:33;;;;;;;0.20;0.20;;;;;;;;;;5089348;28;20403;-71
2023/05/01 10:07:14;;;;;;;0.30;0.30;;;;;;;;;;5088639;28;20032;-71
2023/05/01 10:09:41;;;;;;;0.20;0.20;;;;;;;;;;5089161;28;20182;-72
2023/05/01 10:12:06;;;;;;;0.20;0.20;;;;;;;;;;5089044;28;20332;-71
2023/05/01 10:14:37;;;;;;;0.20;0.20;;;;;;;;;;5070988;28;20119;-71
2023/05/01 10:17:15;;;;;;;0.20;0.20;;;;;;;;;;5070825;28;20487;-71
2023/05/01 10:19:41;;;;;;;0.20;0.20;;;;;;;;;;5087984;28;20032;-71
2023/05/01 10:22:07;;;;;;;0.15;0.15;;;;;;;;;;5087387;28;20039;-73
2023/05/01 10:24:33;;;;;;;0.20;0.20;;;;;;;;;;5088282;28;20036;-71
2023/05/01 10:26:58;;;;;;;0.20;0.20;;;;;;;;;;5087988;28;20131;-71
2023/05/01 10:29:26;;;;;;;0.20;0.20;;;;;;;;;;5088049;28;20067;-70
2023/05/01 10:31:52;;;;;;;0.20;0.20;;;;;;;;;;5087385;28;20039;-71
2023/05/01 10:34:18;;;;;;;0.20;0.20;;;;;;;;;;5088698;28;20036;-73
2023/05/01 10:36:46;;;;;;;0.20;0.20;;;;;;;;;;5088171;28;20024;-74
2023/05/01 10:39:38;;;;;;;0.20;0.20;;;;;;;;;;5088941;28;20040;-77
2023/05/01 10:42:10;;;;;;;0.20;0.20;;;;;;;;;;5084669;28;20058;-76
2023/05/01 10:44:36;;;;;;;0.20;0.20;;;;;;;;;;5089002;28;20086;-70
2023/05/01 10:47:30;;;;;;;0.20;0.20;;;;;;;;;;5089063;28;20364;-71
2023/05/01 10:50:08;;;;;;;0.20;0.20;;;;;;;;;;5070874;28;20479;-70
2023/05/01 10:52:52;;;;;;;0.20;0.20;;;;;;;;;;5088533;28;20032;-72
2023/05/01 10:55:30;;;;;;;0.20;0.20;;;;;;;;;;5088644;28;20028;-77
2023/05/01 10:57:56;;;;;;;0.20;0.20;;;;;;;;;;5088575;28;20050;-71
2023/05/01 11:00:21;;;;;;;0.20;0.20;;;;;;;;;;5088457;28;20032;-72
2023/05/01 11:02:47;;;;;;;0.25;0.25;;;;;;;;;;5088645;28;20119;-71
2023/05/01 11:05:12;;;;;;;0.30;0.30;;;;;;;;;;5088431;28;20040;-71
2023/05/01 11:07:39;;;;;;;0.45;0.40;;;;;;;;;;5088634;28;20028;-72
2023/05/01 11:10:24;;;;;;;0.20;0.20;;;;;;;;;;5088212;28;20454;-72
2023/05/01 11:12:50;;;;;;;1.92;1.75;;;;;;;;;;5088382;28;20030;-71
2023/05/01 11:15:24;;;;;;;0.22;0.22;;;;;;;;;;5088354;28;20044;-71
2023/05/01 11:17:51;;;;;;;0.50;0.50;;;;;;;;;;5088143;28;20040;-70
2023/05/01 11:20:25;;;;;;;0.30;0.30;;;;;;;;;;5092399;28;20479;-72
2023/05/01 11:22:51;;;;;;;0.20;0.20;;;;;;;;;;5091995;28;20040;-72
2023/05/01 11:25:19;;;;;;;0.20;0.20;;;;;;;;;;5091761;28;20032;-70
2023/05/01 11:27:48;;;;;;;0.20;0.20;;;;;;;;;;5091802;28;20032;-70
2023/05/01 11:30:14;;;;;;;0.20;0.20;;;;;;;;;;5091758;28;20483;-72
2023/05/01 11:32:42;;;;;;;0.20;0.20;;;;;;;;;;5091748;28;20029;-72
2023/05/01 11:35:08;;;;;;;1.45;0.50;;;;;;;;;;5074208;28;20101;-72
2023/05/01 11:37:43;;;;;;;0.30;0.30;;;;;;;;;;5091831;28;20078;-71
2023/05/01 11:40:21;;;;;;;0.85;0.30;;;;;;;;;;5073314;28;20384;-71
2023/05/01 11:42:47;;;;;;;0.30;0.30;;;;;;;;;;5092882;28;20032;-71
2023/05/01 11:45:13;;;;;;;0.38;0.38;;;;;;;;;;5091986;28;20139;-71
2023/05/01 11:47:38;;;;;;;0.40;0.40;;;;;;;;;;5074991;28;20394;-70
2023/05/01 11:50:05;;;;;;;0.30;0.30;;;;;;;;;;5090732;28;20048;-71
2023/05/01 11:52:39;;;;;;;0.20;0.20;;;;;;;;;;5090539;28;20032;-74
2023/05/01 11:55:06;;;;;;;0.32;0.32;;;;;;;;;;5071304;28;20389;-72
2023/05/01 11:57:43;;;;;;;0.20;0.20;;;;;;;;;;5089167;28;20119;-75
2023/05/01 12:00:09;;;;;;;0.20;0.20;;;;;;;;;;5088037;28;20036;-75
2023/05/01 12:02:37;;;;;;;0.23;0.23;;;;;;;;;;5086806;28;20032;-70
2023/05/01 12:05:16;;;;;;;0.43;0.43;;;;;;;;;;5089299;28;20063;-72
2023/05/01 12:07:41;;;;;;;1.10;0.90;;;;;;;;;;5075755;28;20029;-70
2023/05/01 12:10:07;;;;;;;0.65;0.30;;;;;;;;;;5068439;28;20032;-71
2023/05/01 12:12:33;;;;;;;0.40;0.40;;;;;;;;;;5078206;28;20035;-69
2023/05/01 12:14:58;;;;;;;0.20;0.20;;;;;;;;;;5089203;28;20497;-70
2023/05/01 12:17:24;;;;;;;0.30;0.30;;;;;;;;;;5089104;28;20028;-69
2023/05/01 12:19:50;;;;;;;0.10;0.10;;;;;;;;;;5088732;28;20081;-77
2023/05/01 12:22:16;;;;;;;0.88;0.88;;;;;;;;;;5076575;28;20494;-71
2023/05/01 12:24:50;;;;;;;0.20;0.20;;;;;;;;;;5070287;28;20467;-69
2023/05/01 12:27:16;;;;;;;0.43;0.30;;;;;;;;;;5070545;28;20033;-70
2023/05/01 12:29:43;;;;;;;0.20;0.20;;;;;;;;;;5077378;28;20039;-70
2023/05/01 12:32:09;;;;;;;0.20;0.20;;;;;;;;;;5078044;28;20121;-70
2023/05/01 12:34:35;;;;;;;0.20;0.20;;;;;;;;;;5070792;28;20657;-70
2023/05/01 12:37:01;;;;;;;0.20;0.20;;;;;;;;;;5070666;28;20405;-70
2023/05/01 12:39:36;;;;;;;0.20;0.20;;;;;;;;;;5070323;28;20032;-71
2023/05/01 12:42:01;;;;;;;0.57;0.57;;;;;;;;;;5070559;28;20047;-71
2023/05/01 12:44:29;;;;;;;0.20;0.20;;;;;;;;;;5070634;28;20025;-70
2023/05/01 12:46:57;;;;;;;1.20;1.10;;;;;;;;;;5070415;28;20032;-70
2023/05/01 12:49:23;;;;;;;0.35;0.30;;;;;;;;;;5070490;28;20352;-71
2023/05/01 12:51:49;;;;;;;0.20;0.20;;;;;;;;;;5079768;28;20384;-70
2023/05/01 12:54:19;;;;;;;0.20;0.20;;;;;;;;;;5084226;28;20032;-70
2023/05/01 12:56:45;;;;;;;0.40;0.40;;;;;;;;;;5084392;28;20027;-70
2023/05/01 12:59:21;;;;;;;0.60;0.60;;;;;;;;;;5083092;28;20101;-70
2023/05/01 13:01:47;;;;;;;0.30;0.30;;;;;;;;;;5082023;28;20028;-70
2023/05/01 13:04:19;;;;;;;0.40;0.40;;;;;;;;;;5090333;28;20048;-71
2023/05/01 13:06:44;;;;;;;0.30;0.30;;;;;;;;;;5088541;28;20383;-70
2023/05/01 13:09:10;;;;;;;0.20;0.20;;;;;;;;;;5062992;28;20127;-70
2023/05/01 13:11:36;;;;;;;0.10;0.10;;;;;;;;;;5081838;28;20052;-70
2023/05/01 13:14:08;;;;;;;0.32;0.32;;;;;;;;;;5080695;28;20039;-70
2023/05/01 13:16:34;;;;;;;0.20;0.20;;;;;;;;;;5084867;28;20101;-70
2023/05/01 13:19:00;;;;;;;0.52;0.52;;;;;;;;;;5089220;28;20472;-78
2023/05/01 13:21:25;;;;;;;0.25;0.25;;;;;;;;;;5089365;28;20019;-70
2023/05/01 13:23:52;;;;;;;0.20;0.20;;;;;;;;;;5088798;28;20131;-71
2023/05/01 13:26:23;;;;;;;0.20;0.20;;;;;;;;;;5089787;28;20027;-74
2023/05/01 13:28:48;;;;;;;0.20;0.20;;;;;;;;;;5089380;28;20037;-76
2023/05/01 13:31:14;;;;;;;0.20;0.20;;;;;;;;;;5090200;28;20494;-70
2023/05/01 13:33:41;;;;;;;0.10;0.10;;;;;;;;;;5089912;28;20020;-70
2023/05/01 13:36:10;;;;;;;0.20;0.20;;;;;;;;;;5054514;28;20028;-70
2023/05/01 13:38:41;;;;;;;0.20;0.20;;;;;;;;;;5054043;28;20039;-70
2023/05/01 13:41:06;;;;;;;0.20;0.20;;;;;;;;;;5087678;28;20028;-70
2023/05/01 13:43:34;;;;;;;0.20;0.20;;;;;;;;;;5089407;28;20383;-70
2023/05/01 13:46:00;;;;;;;0.20;0.20;;;;;;;;;;5088567;28;20429;-71
2023/05/01 13:48:25;;;;;;;0.20;0.20;;;;;;;;;;5090289;28;20035;-70
2023/05/01 13:50:51;;;;;;;0.10;0.10;;;;;;;;;;5092345;28;20111;-70
2023/05/01 13:53:16;;;;;;;0.20;0.20;;;;;;;;;;5092177;28;20035;-70
2023/05/01 13:55:41;;;;;;;0.20;0.20;;;;;;;;;;5089915;28;20036;-70
2023/05/01 13:58:07;;;;;;;0.20;0.20;;;;;;;;;;5089623;28;20065;-70
2023/05/01 14:00:33;;;;;;;0.20;0.20;;;;;;;;;;5090150;28;20040;-75
2023/05/01 14:02:59;;;;;;;0.20;0.20;;;;;;;;;;5089948;28;20036;-70
2023/05/01 14:05:27;;;;;;;0.10;0.10;;;;;;;;;;5089270;28;20089;-71
2023/05/01 14:07:57;;;;;;;0.20;0.20;;;;;;;;;;5089420;28;20032;-70
2023/05/01 14:10:24;;;;;;;0.20;0.20;;;;;;;;;;5071764;28;20062;-71
2023/05/01 14:12:50;;;;;;;0.20;0.20;;;;;;;;;;5089557;28;20047;-70
2023/05/01 14:15:16;;;;;;;0.15;0.15;;;;;;;;;;5071221;28;20032;-69
2023/05/01 14:17:41;;;;;;;0.20;0.20;;;;;;;;;;5089185;28;20035;-70
2023/05/01 14:20:07;;;;;;;0.20;0.20;;;;;;;;;;5070626;28;20028;-70
2023/05/01 14:22:46;;;;;;;0.20;0.20;;;;;;;;;;5089192;28;20216;-77
2023/05/01 14:25:33;;;;;;;0.28;0.28;;;;;;;;;;5088912;28;20040;-70
2023/05/01 14:27:59;;;;;;;0.20;0.20;;;;;;;;;;5088760;28;20044;-70
2023/05/01 14:30:32;;;;;;;0.20;0.20;;;;;;;;;;5089365;28;20040;-71
2023/05/01 14:33:02;;;;;;;0.20;0.20;;;;;;;;;;5071079;28;20024;-70
2023/05/01 14:35:27;;;;;;;0.20;0.20;;;;;;;;;;5088974;28;20024;-70
2023/05/01 14:37:54;;;;;;;0.28;0.28;;;;;;;;;;5087475;28;20067;-72
2023/05/01 14:40:25;;;;;;;0.20;0.20;;;;;;;;;;5087008;28;20121;-75
2023/05/01 14:42:52;;;;;;;0.20;0.20;;;;;;;;;;5069390;28;20059;-72
2023/05/01 14:45:17;;;;;;;0.20;0.20;;;;;;;;;;5086999;28;20132;-70